createdAt,value
2023-05-12T00:01:27.431Z,6.13
2023-05-12T00:03:59.293Z,5.40
2023-05-12T00:06:31.439Z,5.97
2023-05-12T00:09:03.242Z,6.50
2023-05-12T00:11:36.305Z,6.07
2023-05-12T00:14:15.193Z,6.50
2023-05-12T00:16:51.592Z,5.88
2023-05-12T00:19:23.429Z,6.57
2023-05-12T00:21:55.263Z,5.57
2023-05-12T00:24:27.002Z,6.33
2023-05-12T00:26:58.717Z,6.03
2023-05-12T00:29:30.571Z,7.20
2023-05-12T00:32:02.351Z,8.80
2023-05-12T00:34:34.089Z,6.60
2023-05-12T00:37:06.456Z,6.80
2023-05-12T00:39:38.174Z,7.23
2023-05-12T00:42:11.992Z,6.27
2023-05-12T00:44:43.675Z,7.37
2023-05-12T00:47:15.617Z,7.03
2023-05-12T00:49:47.476Z,6.93
2023-05-12T00:52:19.842Z,6.43
2023-05-12T00:54:51.555Z,6.53
2023-05-12T00:57:25.611Z,5.90
2023-05-12T00:59:57.390Z,7.00
2023-05-12T01:02:29.304Z,8.63
2023-05-12T01:05:01.329Z,6.37
2023-05-12T01:07:33.654Z,6.23
2023-05-12T01:10:16.631Z,6.53
2023-05-12T01:12:48.692Z,7.63
2023-05-12T01:15:20.538Z,7.70
2023-05-12T01:18:02.974Z,7.03
2023-05-12T01:20:35.324Z,6.87
2023-05-12T01:23:07.208Z,6.20
2023-05-12T01:25:39.852Z,6.30
2023-05-12T01:28:12.388Z,6.60
2023-05-12T01:30:44.673Z,6.53
2023-05-12T01:33:16.505Z,7.27
2023-05-12T01:35:48.261Z,5.30
2023-05-12T01:38:20.074Z,5.93
2023-05-12T01:40:51.832Z,6.03
2023-05-12T01:43:23.591Z,6.30
2023-05-12T01:45:55.339Z,6.40
2023-05-12T01:48:27.088Z,5.80
2023-05-12T01:51:01.198Z,5.40
2023-05-12T01:53:32.898Z,6.60
2023-05-12T01:56:04.782Z,7.40
2023-05-12T01:58:36.507Z,7.03
2023-05-12T02:01:08.276Z,8.32
2023-05-12T02:03:40.032Z,9.03
2023-05-12T02:06:11.919Z,9.63
2023-05-12T02:08:43.663Z,10.43
2023-05-12T02:11:15.863Z,8.33
2023-05-12T02:13:47.707Z,8.67
2023-05-12T02:16:19.438Z,9.53
2023-05-12T02:18:51.189Z,8.97
2023-05-12T02:21:22.889Z,9.40
2023-05-12T02:23:56.171Z,9.43
2023-05-12T02:26:28.004Z,9.70
2023-05-12T02:28:59.758Z,10.37
2023-05-12T02:31:31.520Z,10.00
2023-05-12T02:34:06.334Z,9.53
2023-05-12T02:36:38.498Z,10.18
2023-05-12T02:39:10.239Z,9.80
2023-05-12T02:41:41.980Z,10.90
2023-05-12T02:44:13.756Z,11.80
2023-05-12T02:46:45.453Z,10.37
2023-05-12T02:49:17.108Z,10.73
2023-05-12T02:51:49.120Z,11.17
2023-05-12T02:54:21.580Z,11.38
2023-05-12T02:56:53.411Z,12.83
2023-05-12T02:59:25.095Z,12.10
2023-05-12T03:01:57.082Z,11.20
2023-05-12T03:04:28.810Z,10.83
2023-05-12T03:07:00.660Z,10.20
2023-05-12T03:09:32.616Z,10.00
2023-05-12T03:12:04.622Z,12.93
2023-05-12T03:14:36.360Z,13.03
2023-05-12T03:17:08.127Z,13.60
2023-05-12T03:19:39.902Z,14.33
2023-05-12T03:22:11.600Z,13.90
2023-05-12T03:24:43.396Z,14.60
2023-05-12T03:27:15.172Z,11.50
2023-05-12T03:29:47.028Z,14.07
2023-05-12T03:32:18.851Z,13.33
2023-05-12T03:34:50.543Z,13.43
2023-05-12T03:37:22.716Z,13.30
2023-05-12T03:39:56.150Z,13.23
2023-05-12T03:42:28.555Z,13.20
2023-05-12T03:45:00.306Z,14.20
2023-05-12T03:47:32.128Z,13.40
2023-05-12T03:50:04.312Z,12.80
2023-05-12T03:52:38.378Z,12.73
2023-05-12T03:55:10.617Z,12.70
2023-05-12T03:57:42.348Z,14.57
2023-05-12T04:00:14.468Z,14.07
2023-05-12T04:02:46.458Z,15.37
2023-05-12T04:05:18.267Z,13.10
2023-05-12T04:07:50.137Z,12.53
2023-05-12T04:10:22.282Z,14.53
2023-05-12T04:12:54.616Z,13.73
2023-05-12T04:15:26.727Z,14.07
2023-05-12T04:17:58.476Z,14.60
2023-05-12T04:20:30.272Z,14.18
2023-05-12T04:23:01.990Z,15.00
2023-05-12T04:25:33.951Z,15.83
2023-05-12T04:28:06.004Z,14.90
2023-05-12T04:30:40.490Z,14.67
2023-05-12T04:33:12.438Z,14.10
2023-05-12T04:35:44.163Z,13.60
2023-05-12T04:38:15.877Z,14.90
2023-05-12T04:40:47.597Z,13.23
2023-05-12T04:45:55.304Z,13.77
2023-05-12T04:48:27.684Z,13.50
2023-05-12T04:51:00.293Z,14.40
2023-05-12T04:53:34.615Z,12.90
2023-05-12T04:56:06.608Z,14.18
2023-05-12T04:58:38.407Z,14.77
2023-05-12T05:01:12.280Z,14.50
2023-05-12T05:03:44.231Z,13.70
2023-05-12T05:06:16.016Z,13.53
2023-05-12T05:08:47.741Z,13.40
2023-05-12T05:11:19.475Z,12.93
2023-05-12T05:13:51.314Z,12.90
2023-05-12T05:16:23.552Z,13.90
2023-05-12T05:18:55.551Z,12.90
2023-05-12T05:21:27.337Z,12.90
2023-05-12T05:23:59.005Z,13.70
2023-05-12T05:26:30.894Z,11.63
2023-05-12T05:29:02.814Z,12.50
2023-05-12T05:31:34.605Z,13.53
2023-05-12T05:34:06.428Z,11.53
2023-05-12T05:36:38.124Z,12.30
2023-05-12T05:39:10.424Z,12.60
2023-05-12T05:41:42.196Z,11.27
2023-05-12T05:44:13.897Z,11.40
2023-05-12T05:46:45.705Z,11.60
2023-05-12T05:49:17.532Z,12.30
2023-05-12T05:51:49.245Z,11.27
2023-05-12T05:54:24.387Z,10.50
2023-05-12T05:56:56.136Z,10.53
2023-05-12T05:59:28.069Z,11.40
2023-05-12T06:01:59.806Z,10.73
2023-05-12T06:04:31.509Z,9.93
2023-05-12T06:07:03.690Z,10.33
2023-05-12T06:09:35.389Z,10.70
2023-05-12T06:12:07.572Z,11.07
2023-05-12T06:14:39.288Z,11.23
2023-05-12T06:17:10.965Z,11.83
2023-05-12T06:19:47.573Z,12.00
2023-05-12T06:22:19.637Z,12.30
2023-05-12T06:24:51.465Z,11.87
2023-05-12T06:27:23.416Z,12.10
2023-05-12T06:29:55.204Z,10.47
2023-05-12T06:32:26.927Z,11.37
2023-05-12T06:34:58.920Z,10.23
2023-05-12T06:37:30.812Z,9.90
2023-05-12T06:40:02.516Z,9.77
2023-05-12T06:42:34.247Z,9.10
2023-05-12T06:45:06.475Z,8.83
2023-05-12T06:47:38.219Z,7.33
2023-05-12T06:50:10.411Z,8.17
2023-05-12T06:52:42.131Z,8.07
2023-05-12T06:55:13.976Z,6.50
2023-05-12T06:57:45.703Z,7.40
2023-05-12T07:00:17.699Z,7.57
2023-05-12T07:02:49.452Z,8.67
2023-05-12T07:05:21.634Z,7.30
2023-05-12T07:07:53.563Z,7.67
2023-05-12T07:10:25.353Z,7.20
2023-05-12T07:12:57.176Z,7.60
2023-05-12T07:15:30.595Z,7.33
2023-05-12T07:18:04.309Z,5.17
2023-05-12T07:20:36.059Z,6.37
2023-05-12T07:23:07.952Z,5.73
2023-05-12T07:25:39.888Z,6.73
2023-05-12T07:28:11.658Z,6.17
2023-05-12T07:30:43.435Z,5.80
2023-05-12T07:33:15.243Z,5.87
2023-05-12T07:35:47.076Z,7.53
2023-05-12T07:38:18.790Z,7.37
2023-05-12T07:40:51.371Z,7.90
2023-05-12T07:43:23.178Z,6.13
2023-05-12T07:45:56.151Z,7.83
2023-05-12T07:48:28.055Z,6.40
2023-05-12T07:50:59.760Z,7.17
2023-05-12T07:53:31.509Z,6.67
2023-05-12T07:56:03.243Z,6.77
2023-05-12T07:58:34.970Z,7.07
2023-05-12T08:01:06.950Z,5.27
2023-05-12T08:03:39.042Z,5.77
2023-05-12T08:06:10.939Z,5.15
2023-05-12T08:08:42.724Z,5.90
2023-05-12T08:11:14.486Z,6.30
2023-05-12T08:13:46.245Z,6.80
2023-05-12T08:16:18.040Z,5.70
2023-05-12T08:18:49.846Z,6.63
2023-05-12T08:21:22.153Z,5.00
2023-05-12T08:23:53.887Z,6.25
2023-05-12T08:26:25.674Z,6.20
2023-05-12T08:28:57.456Z,7.67
2023-05-12T08:31:29.206Z,6.97
2023-05-12T08:34:09.590Z,5.80
2023-05-12T08:36:42.085Z,5.67
2023-05-12T08:39:14.455Z,5.20
2023-05-12T08:41:58.689Z,6.07
2023-05-12T08:44:32.053Z,6.53
2023-05-12T08:47:05.156Z,5.50
2023-05-12T08:49:39.392Z,7.27
2023-05-12T08:52:14.464Z,6.87
2023-05-12T08:54:55.488Z,6.17
2023-05-12T08:57:29.629Z,6.90
2023-05-12T09:00:04.098Z,6.00
2023-05-12T09:02:51.462Z,5.60
2023-05-12T09:05:25.736Z,5.70
2023-05-12T09:07:59.130Z,6.10
2023-05-12T09:10:35.066Z,4.00
2023-05-12T09:13:23.578Z,4.03
2023-05-12T09:15:57.436Z,4.00
2023-05-12T09:18:54.300Z,3.73
2023-05-12T09:21:26.963Z,3.83
2023-05-12T09:24:08.962Z,4.80
2023-05-12T09:26:49.506Z,3.87
2023-05-12T09:29:31.397Z,3.57
2023-05-12T09:32:04.549Z,3.70
2023-05-12T09:34:38.647Z,3.50
2023-05-12T09:37:10.580Z,3.50
2023-05-12T09:39:42.298Z,3.57
2023-05-12T09:42:15.825Z,3.50
2023-05-12T09:44:47.866Z,3.30
2023-05-12T09:47:19.973Z,3.30
2023-05-12T09:49:52.889Z,3.80
2023-05-12T09:52:24.694Z,3.30
2023-05-12T09:54:56.569Z,3.73
2023-05-12T09:57:29.757Z,3.70
2023-05-12T10:00:04.900Z,3.60
2023-05-12T10:02:42.376Z,3.47
2023-05-12T10:05:20.918Z,4.33
2023-05-12T10:07:57.445Z,3.50
2023-05-12T10:10:29.372Z,4.30
2023-05-12T10:13:01.353Z,4.00
2023-05-12T10:15:34.254Z,3.63
2023-05-12T10:18:06.449Z,3.23
2023-05-12T10:20:39.116Z,4.37
2023-05-12T10:23:12.318Z,4.33
2023-05-12T10:25:44.952Z,3.77
2023-05-12T10:28:17.463Z,4.30
2023-05-12T10:30:50.310Z,4.07
2023-05-12T10:33:22.153Z,4.47
2023-05-12T10:35:54.005Z,4.17
2023-05-12T10:38:25.841Z,3.80
2023-05-12T10:41:03.042Z,4.00
2023-05-12T10:43:43.064Z,3.90
2023-05-12T10:46:20.932Z,3.70
2023-05-12T10:49:00.614Z,3.60
2023-05-12T10:51:34.788Z,3.27
2023-05-12T10:54:09.918Z,3.53
2023-05-12T10:56:46.123Z,4.00
2023-05-12T10:59:26.812Z,3.67
2023-05-12T11:02:05.363Z,3.50
2023-05-12T11:04:40.824Z,3.40
2023-05-12T11:07:15.762Z,3.30
2023-05-12T11:09:56.840Z,3.70
2023-05-12T11:12:38.168Z,3.63
2023-05-12T11:15:10.322Z,3.70
2023-05-12T11:17:42.163Z,3.80
2023-05-12T11:20:24.110Z,3.80
2023-05-12T11:22:56.091Z,4.67
2023-05-12T11:25:31.087Z,4.50
2023-05-12T11:28:03.414Z,4.30
2023-05-12T11:30:35.090Z,3.37
2023-05-12T11:33:06.875Z,4.30
2023-05-12T11:35:38.556Z,5.10
2023-05-12T11:38:17.641Z,4.13
2023-05-12T11:40:49.347Z,4.00
2023-05-12T11:43:22.552Z,3.50
2023-05-12T11:45:55.426Z,4.40
2023-05-12T11:48:36.928Z,4.27
2023-05-12T11:51:08.741Z,4.73
2023-05-12T11:53:41.141Z,5.67
2023-05-12T11:56:22.244Z,5.33
2023-05-12T11:58:55.843Z,5.20
2023-05-12T12:01:27.568Z,5.87
2023-05-12T12:03:59.399Z,5.20
2023-05-12T12:06:31.173Z,5.60
2023-05-12T12:09:02.902Z,5.57
2023-05-12T12:11:34.898Z,6.00
2023-05-12T12:14:06.771Z,4.93
2023-05-12T12:16:38.572Z,5.37
2023-05-12T12:19:10.391Z,4.57
2023-05-12T12:21:42.734Z,4.70
2023-05-12T12:24:14.546Z,4.72
2023-05-12T12:26:46.330Z,4.07
2023-05-12T12:29:18.616Z,3.87
2023-05-12T12:31:50.698Z,3.40
2023-05-12T12:34:22.514Z,4.23
2023-05-12T12:36:54.272Z,3.27
2023-05-12T12:39:26.095Z,3.57
2023-05-12T12:41:58.982Z,3.17
2023-05-12T12:44:30.647Z,2.70
2023-05-12T12:47:02.430Z,3.10
2023-05-12T12:49:34.607Z,3.13
2023-05-12T12:52:07.289Z,2.53
2023-05-12T12:54:39.140Z,1.83
2023-05-12T12:57:10.885Z,2.17
2023-05-12T12:59:42.588Z,2.67
2023-05-12T13:02:14.473Z,2.43
2023-05-12T13:04:46.262Z,2.10
2023-05-12T13:07:18.049Z,2.43
2023-05-12T13:09:49.773Z,2.40
2023-05-12T13:12:21.481Z,2.50
2023-05-12T13:14:53.213Z,2.30
2023-05-12T13:17:24.930Z,2.90
2023-05-12T13:19:56.731Z,2.50
2023-05-12T13:22:29.023Z,2.53
2023-05-12T13:25:00.832Z,3.17
2023-05-12T13:27:32.668Z,3.10
2023-05-12T13:30:07.244Z,2.70
2023-05-12T13:32:39.168Z,2.50
2023-05-12T13:35:11.114Z,3.07
2023-05-12T13:37:42.912Z,2.60
2023-05-12T13:40:14.702Z,3.37
2023-05-12T13:42:46.463Z,3.43
2023-05-12T13:45:19.646Z,3.90
2023-05-12T13:47:51.579Z,2.93
2023-05-12T13:50:23.383Z,2.90
2023-05-12T13:52:55.127Z,3.50
2023-05-12T13:55:27.363Z,3.10
2023-05-12T13:58:00.064Z,4.17
2023-05-12T14:00:31.850Z,4.30
2023-05-12T14:03:03.547Z,4.37
2023-05-12T14:05:35.438Z,4.60
2023-05-12T14:08:07.152Z,4.57
2023-05-12T14:10:38.946Z,5.37
2023-05-12T14:13:10.755Z,4.03
2023-05-12T14:15:49.215Z,4.80
2023-05-12T14:18:22.042Z,4.83
2023-05-12T14:20:53.898Z,4.80
2023-05-12T14:23:25.678Z,4.60
2023-05-12T14:25:57.482Z,4.63
2023-05-12T14:28:29.243Z,5.00
2023-05-12T14:31:03.179Z,4.90
2023-05-12T14:33:35.052Z,4.90
2023-05-12T14:36:08.711Z,4.40
2023-05-12T14:38:40.713Z,5.00
2023-05-12T14:41:12.452Z,5.40
2023-05-12T14:43:44.204Z,6.03
2023-05-12T14:46:16.215Z,6.67
2023-05-12T14:48:48.813Z,6.73
2023-05-12T14:51:20.568Z,7.77
2023-05-12T14:53:52.284Z,7.23
2023-05-12T14:56:25.342Z,7.07
2023-05-12T14:58:57.449Z,7.30
2023-05-12T15:01:29.371Z,6.90
2023-05-12T15:04:01.182Z,7.00
2023-05-12T15:06:33.725Z,7.00
2023-05-12T15:09:05.543Z,7.63
2023-05-12T15:11:37.705Z,8.00
2023-05-12T15:14:09.413Z,8.05
2023-05-12T15:16:41.531Z,9.47
2023-05-12T15:19:14.139Z,9.33
2023-05-12T15:21:45.933Z,9.73
2023-05-12T15:24:17.644Z,9.10
2023-05-12T15:26:49.340Z,9.17
2023-05-12T15:29:21.455Z,10.10
2023-05-12T15:31:53.598Z,9.70
2023-05-12T15:34:25.501Z,10.40
2023-05-12T15:36:57.415Z,11.43
2023-05-12T15:39:29.235Z,11.50
2023-05-12T15:42:01.392Z,10.90
2023-05-12T15:44:33.249Z,11.60
2023-05-12T15:47:05.302Z,11.70
2023-05-12T15:49:37.055Z,10.38
2023-05-12T15:52:11.439Z,12.17
2023-05-12T15:54:43.150Z,10.07
2023-05-12T15:57:14.980Z,9.13
2023-05-12T15:59:47.534Z,8.53
2023-05-12T16:02:19.227Z,8.63
2023-05-12T16:04:50.991Z,7.40
2023-05-12T16:07:22.728Z,8.88
2023-05-12T16:09:54.504Z,8.60
2023-05-12T16:12:26.405Z,8.60
2023-05-12T16:14:58.140Z,8.50
2023-05-12T16:17:29.961Z,7.87
2023-05-12T16:20:02.063Z,8.43
2023-05-12T16:22:34.361Z,8.70
2023-05-12T16:25:06.297Z,8.80
2023-05-12T16:27:38.883Z,8.87
2023-05-12T16:30:13.180Z,8.70
2023-05-12T16:32:45.665Z,7.50
2023-05-12T16:35:17.682Z,7.60
2023-05-12T16:37:49.482Z,8.23
2023-05-12T16:40:21.223Z,9.77
2023-05-12T16:42:54.758Z,7.97
2023-05-12T16:45:26.407Z,7.87
2023-05-12T16:47:58.093Z,7.47
2023-05-12T16:50:29.861Z,8.00
2023-05-12T16:53:01.591Z,7.90
2023-05-12T16:55:33.324Z,6.93
2023-05-12T16:58:05.047Z,7.47
2023-05-12T17:00:36.804Z,7.50
2023-05-12T17:03:09.059Z,7.70
2023-05-12T17:05:43.071Z,7.50
2023-05-12T17:08:15.455Z,7.97
2023-05-12T17:10:48.577Z,6.23
2023-05-12T17:13:21.318Z,7.23
2023-05-12T17:15:53.354Z,6.73
2023-05-12T17:18:25.247Z,7.37
2023-05-12T17:20:56.986Z,7.77
2023-05-12T17:23:29.422Z,6.63
2023-05-12T17:26:01.147Z,6.93
2023-05-12T17:28:32.924Z,8.10
2023-05-12T17:31:06.164Z,7.77
2023-05-12T17:33:37.890Z,7.07
2023-05-12T17:36:12.765Z,8.47
2023-05-12T17:38:45.527Z,6.87
2023-05-12T17:41:17.701Z,6.60
2023-05-12T17:43:49.450Z,6.27
2023-05-12T17:46:21.228Z,5.87
2023-05-12T17:48:53.054Z,6.20
2023-05-12T17:51:24.931Z,6.67
2023-05-12T17:53:56.841Z,6.80
2023-05-12T17:56:28.723Z,7.47
2023-05-12T17:59:00.442Z,6.97
2023-05-12T18:01:32.158Z,6.70
2023-05-12T18:04:03.967Z,6.57
2023-05-12T18:06:35.666Z,6.57
2023-05-12T18:09:08.510Z,6.37
2023-05-12T18:11:40.881Z,5.90
2023-05-12T18:14:12.576Z,7.17
2023-05-12T18:16:44.264Z,7.53
2023-05-12T18:19:16.146Z,6.27
2023-05-12T18:21:50.309Z,8.20
2023-05-12T18:24:22.000Z,6.68
2023-05-12T18:26:53.665Z,7.00
2023-05-12T18:29:25.351Z,7.17
2023-05-12T18:31:57.098Z,7.33
2023-05-12T18:34:30.095Z,6.73
2023-05-12T18:37:02.054Z,7.40
2023-05-12T18:39:34.209Z,8.33
2023-05-12T18:42:06.141Z,7.40
2023-05-12T18:44:40.376Z,7.70
2023-05-12T18:47:12.742Z,8.10
2023-05-12T18:49:44.893Z,7.83
2023-05-12T18:52:16.697Z,7.70
2023-05-12T18:54:49.885Z,7.63
2023-05-12T18:57:21.826Z,7.00
2023-05-12T18:59:53.657Z,7.20
2023-05-12T19:02:25.443Z,7.07
2023-05-12T19:04:57.468Z,7.87
2023-05-12T19:07:29.384Z,6.93
2023-05-12T19:10:01.070Z,7.10
2023-05-12T19:12:32.929Z,7.17
2023-05-12T19:15:05.028Z,6.78
2023-05-12T19:17:36.840Z,6.83
2023-05-12T19:20:09.278Z,6.27
2023-05-12T19:22:41.993Z,6.30
2023-05-12T19:25:17.992Z,5.43
2023-05-12T19:27:49.855Z,5.40
2023-05-12T19:30:21.561Z,6.10
2023-05-12T19:32:53.855Z,6.00
2023-05-12T19:35:26.124Z,5.87
2023-05-12T19:37:57.857Z,5.93
2023-05-12T19:40:30.597Z,5.90
2023-05-12T19:43:04.991Z,5.90
2023-05-12T19:45:37.007Z,5.80
2023-05-12T19:48:09.163Z,5.65
2023-05-12T19:50:41.234Z,6.50
2023-05-12T19:53:12.944Z,6.83
2023-05-12T19:55:44.723Z,6.03
2023-05-12T19:58:16.468Z,5.87
2023-05-12T20:00:49.196Z,5.70
2023-05-12T20:03:21.309Z,6.33
2023-05-12T20:05:53.156Z,5.70
2023-05-12T20:08:24.835Z,5.97
2023-05-12T20:10:56.558Z,6.23
2023-05-12T20:13:28.235Z,6.33
2023-05-12T20:15:59.992Z,5.60
2023-05-12T20:18:31.786Z,5.23
2023-05-12T20:21:03.542Z,5.50
2023-05-12T20:23:35.354Z,5.43
2023-05-12T20:26:07.159Z,6.37
2023-05-12T20:28:39.197Z,5.17
2023-05-12T20:31:10.999Z,5.10
2023-05-12T20:33:43.031Z,5.23
2023-05-12T20:36:14.706Z,4.83
2023-05-12T20:38:46.447Z,5.20
2023-05-12T20:41:18.711Z,5.40
2023-05-12T20:43:50.416Z,5.00
2023-05-12T20:46:22.203Z,4.77
2023-05-12T20:48:54.799Z,5.40
2023-05-12T20:51:26.733Z,5.20
2023-05-12T20:53:58.520Z,4.97
2023-05-12T20:56:30.230Z,5.50
2023-05-12T20:59:02.380Z,5.00
2023-05-12T21:01:34.211Z,4.80
2023-05-12T21:04:05.997Z,4.90
2023-05-12T21:06:37.908Z,5.53
2023-05-12T21:09:09.848Z,5.13
2023-05-12T21:11:41.611Z,5.57
2023-05-12T21:14:13.353Z,5.10
2023-05-12T21:16:45.147Z,4.90
2023-05-12T21:19:16.985Z,5.60
2023-05-12T21:21:48.657Z,5.03
2023-05-12T21:24:20.371Z,5.50
2023-05-12T21:26:52.065Z,5.43
2023-05-12T21:29:23.837Z,5.13
2023-05-12T21:31:55.659Z,5.30
2023-05-12T21:34:27.785Z,5.13
2023-05-12T21:37:00.310Z,4.50
2023-05-12T21:39:32.039Z,5.10
2023-05-12T21:42:04.057Z,5.80
2023-05-12T21:44:35.888Z,4.90
2023-05-12T21:47:08.588Z,5.30
2023-05-12T21:49:40.273Z,5.03
2023-05-12T21:52:12.243Z,5.77
2023-05-12T21:54:43.914Z,4.73
2023-05-12T21:57:15.728Z,5.23
2023-05-12T21:59:47.824Z,4.47
2023-05-12T22:02:19.583Z,4.80
2023-05-12T22:04:51.284Z,4.80
2023-05-12T22:07:23.593Z,4.83
2023-05-12T22:09:55.243Z,4.53
2023-05-12T22:12:28.073Z,4.40
2023-05-12T22:14:59.791Z,4.70
2023-05-12T22:17:31.561Z,4.40
2023-05-12T22:20:04.115Z,3.87
2023-05-12T22:22:36.085Z,4.90
2023-05-12T22:25:08.488Z,4.03
2023-05-12T22:27:40.284Z,4.43
2023-05-12T22:30:12.569Z,4.80
2023-05-12T22:32:44.914Z,4.20
2023-05-12T22:35:16.984Z,4.70
2023-05-12T22:37:49.796Z,4.90
2023-05-12T22:40:23.050Z,4.80
2023-05-12T22:42:54.934Z,4.80
2023-05-12T22:45:26.879Z,4.47
2023-05-12T22:47:58.640Z,4.50
2023-05-12T22:50:30.457Z,4.13
2023-05-12T22:53:02.149Z,4.40
2023-05-12T22:55:33.920Z,4.38
2023-05-12T22:58:05.650Z,4.07
2023-05-12T23:00:37.864Z,4.80
2023-05-12T23:03:09.687Z,3.90
2023-05-12T23:05:41.398Z,5.97
2023-05-12T23:08:13.088Z,5.00
2023-05-12T23:10:44.813Z,4.70
2023-05-12T23:13:16.641Z,5.47
2023-05-12T23:15:48.355Z,5.20
2023-05-12T23:18:20.587Z,4.53
2023-05-12T23:20:52.315Z,4.93
2023-05-12T23:23:24.192Z,5.30
2023-05-12T23:25:55.923Z,6.00
2023-05-12T23:28:27.625Z,5.60
2023-05-12T23:30:59.373Z,6.07
2023-05-12T23:33:31.660Z,6.30
2023-05-12T23:36:03.673Z,6.40
2023-05-12T23:38:35.356Z,7.60
2023-05-12T23:41:07.069Z,7.00
2023-05-12T23:43:39.006Z,7.13
2023-05-12T23:46:10.751Z,6.73
2023-05-12T23:48:42.458Z,6.73
2023-05-12T23:51:14.156Z,6.97
2023-05-12T23:53:45.873Z,7.40
2023-05-12T23:56:17.674Z,6.70
2023-05-12T23:58:49.433Z,6.50
